KCLS/CLS METAR and TAF weather

Enter ICAO airport designator
Station Type Date Time Source
KCLS METAR 2021/06/24 05:55 UTC NOAA

KCLS 240555Z AUTO 00000KT 10SM CLR 15/13 A3001 RMK AO2


Station Type Date Time Source
KCLS Decoded METAR 2021/06/24 05:55 UTC NOAA

Station name not available
Jun 24, 2021 - 01:55 AM EDT / 2021.06.24 0555 UTC
Wind: Calm:0
Visibility: 10 mile(s):0
Sky conditions: clear
Temperature: 59 F (15 C)
Dew Point: 55 F (13 C)
Relative Humidity: 87%
Pressure (altimeter): 30.01 in. Hg (1016 hPa)
ob: KCLS 240555Z AUTO 00000KT 10SM CLR 15/13 A3001 RMK AO2
cycle: 6

Station Type Date Time Source
KCLS TAF UTC NOAA

Error!

Example: see airport list